createdAt,value
2018-06-04T00:00:29.519Z,17.40
2018-06-04T00:02:57.968Z,17.40
2018-06-04T00:05:26.488Z,17.30
2018-06-04T00:07:54.978Z,17.20
2018-06-04T00:10:23.451Z,17.10
2018-06-04T00:12:51.925Z,17.20
2018-06-04T00:15:20.382Z,17.10
2018-06-04T00:17:49.069Z,17.30
2018-06-04T00:20:17.543Z,17.30
2018-06-04T00:22:46.071Z,17.30
2018-06-04T00:25:14.618Z,17.00
2018-06-04T00:27:43.043Z,17.10
2018-06-04T00:32:39.622Z,17.10
2018-06-04T00:35:08.118Z,16.80
2018-06-04T00:37:36.568Z,16.90
2018-06-04T00:40:05.072Z,16.70
2018-06-04T00:42:33.642Z,16.70
2018-06-04T00:47:30.258Z,16.70
2018-06-04T00:49:58.706Z,16.70
2018-06-04T00:52:27.355Z,16.70
2018-06-04T00:54:55.843Z,16.70
2018-06-04T00:57:24.342Z,16.60
2018-06-04T00:59:52.844Z,16.70
2018-06-04T01:02:22.182Z,16.60
2018-06-04T01:04:50.636Z,16.60
2018-06-04T01:07:19.136Z,16.60
2018-06-04T01:09:47.564Z,16.60
2018-06-04T01:12:16.124Z,16.20
2018-06-04T01:14:44.635Z,16.40
2018-06-04T01:17:13.095Z,16.30
2018-06-04T01:19:41.515Z,16.50
2018-06-04T01:22:09.980Z,16.70
2018-06-04T01:24:39.195Z,16.50
2018-06-04T01:27:07.651Z,16.20
2018-06-04T01:29:36.118Z,16.30
2018-06-04T01:32:04.640Z,16.50
2018-06-04T01:34:33.099Z,16.40
2018-06-04T01:37:01.598Z,16.50
2018-06-04T01:39:30.046Z,16.70
2018-06-04T01:41:58.496Z,16.40
2018-06-04T01:46:55.076Z,16.50
2018-06-04T01:49:23.526Z,16.30
2018-06-04T01:51:52.035Z,16.10
2018-06-04T01:54:20.508Z,16.20
2018-06-04T01:56:49.012Z,16.10
2018-06-04T01:59:17.479Z,16.10
2018-06-04T02:01:45.994Z,16.00
2018-06-04T02:04:14.500Z,16.00
2018-06-04T02:06:42.982Z,15.80
2018-06-04T02:09:11.453Z,15.70
2018-06-04T02:11:39.964Z,15.80
2018-06-04T02:14:08.474Z,15.70
2018-06-04T02:16:36.930Z,15.40
2018-06-04T02:19:05.541Z,15.40
2018-06-04T02:21:33.971Z,15.30
2018-06-04T02:24:02.401Z,15.40
2018-06-04T02:26:30.863Z,15.40
2018-06-04T02:28:59.364Z,15.40
2018-06-04T02:31:27.837Z,15.50
2018-06-04T02:33:56.339Z,15.70
2018-06-04T02:36:25.059Z,15.40
2018-06-04T02:38:53.578Z,15.40
2018-06-04T02:41:22.055Z,15.60
2018-06-04T02:43:50.510Z,15.50
2018-06-04T02:46:19.023Z,15.70
2018-06-04T02:48:47.456Z,15.50
2018-06-04T02:51:15.896Z,15.40
2018-06-04T02:53:44.346Z,15.50
2018-06-04T02:56:12.826Z,15.60
2018-06-04T02:58:41.303Z,15.40
2018-06-04T03:01:09.833Z,15.60
2018-06-04T03:03:38.327Z,15.60
2018-06-04T03:06:06.744Z,15.40
2018-06-04T03:08:35.230Z,15.70
2018-06-04T03:11:03.705Z,15.70
2018-06-04T03:13:32.155Z,15.70
2018-06-04T03:16:00.624Z,15.60
2018-06-04T03:18:29.149Z,15.40
2018-06-04T03:20:57.580Z,15.20
2018-06-04T03:23:26.039Z,15.00
2018-06-04T03:25:54.754Z,15.10
2018-06-04T03:28:23.209Z,15.00
2018-06-04T03:30:51.704Z,15.00
2018-06-04T03:33:20.155Z,15.10
2018-06-04T03:35:48.630Z,15.30
2018-06-04T03:38:17.029Z,15.60
2018-06-04T03:40:45.483Z,15.80
2018-06-04T03:43:13.959Z,15.90
2018-06-04T03:45:42.451Z,15.70
2018-06-04T03:48:10.963Z,15.20
2018-06-04T03:50:40.366Z,15.00
2018-06-04T03:53:08.824Z,15.00
2018-06-04T03:55:37.275Z,14.80
2018-06-04T04:00:33.933Z,14.90
2018-06-04T04:03:02.471Z,14.80
2018-06-04T04:05:31.151Z,14.90
2018-06-04T04:08:00.602Z,15.00
2018-06-04T04:10:29.026Z,15.10
2018-06-04T04:12:57.493Z,15.00
2018-06-04T04:15:26.027Z,15.10
2018-06-04T04:17:54.531Z,15.40
2018-06-04T04:20:22.990Z,15.40
2018-06-04T04:22:51.443Z,15.50
2018-06-04T04:25:19.902Z,15.30
2018-06-04T04:27:48.403Z,15.60
2018-06-04T04:30:16.867Z,15.90
2018-06-04T04:32:45.403Z,15.60
2018-06-04T04:35:13.905Z,15.90
2018-06-04T04:37:42.406Z,16.00
2018-06-04T04:40:10.902Z,16.20
2018-06-04T04:42:39.312Z,16.10
2018-06-04T04:45:07.812Z,16.00
2018-06-04T04:47:36.246Z,16.00
2018-06-04T04:50:04.721Z,15.90
2018-06-04T04:52:33.340Z,16.10
2018-06-04T04:55:01.834Z,16.00
2018-06-04T04:59:58.412Z,15.90
2018-06-04T05:02:26.957Z,16.00
2018-06-04T05:04:55.467Z,15.90
2018-06-04T05:07:24.003Z,15.90
2018-06-04T05:09:52.442Z,15.90
2018-06-04T05:12:20.891Z,15.90
2018-06-04T05:14:49.323Z,16.00
2018-06-04T05:17:17.756Z,16.10
2018-06-04T05:22:14.375Z,16.50
2018-06-04T05:24:42.869Z,16.50
2018-06-04T05:27:11.327Z,16.50
2018-06-04T05:29:39.867Z,16.60
2018-06-04T05:32:08.370Z,16.60
2018-06-04T05:34:36.854Z,16.70
2018-06-04T05:37:05.310Z,16.90
2018-06-04T05:39:33.847Z,17.00
2018-06-04T05:42:02.294Z,17.00
2018-06-04T05:44:30.783Z,17.00
2018-06-04T05:46:59.253Z,17.30
2018-06-04T05:49:27.747Z,17.10
2018-06-04T05:51:56.281Z,17.20
2018-06-04T05:56:52.974Z,17.30
2018-06-04T05:59:21.459Z,17.40
2018-06-04T06:01:50.114Z,17.50
2018-06-04T06:04:18.543Z,17.60
2018-06-04T06:06:46.982Z,17.60
2018-06-04T06:09:15.493Z,17.80
2018-06-04T06:11:43.942Z,17.80
2018-06-04T06:14:12.397Z,17.90
2018-06-04T06:16:40.898Z,17.90
2018-06-04T06:19:09.422Z,18.00
2018-06-04T06:21:37.894Z,18.10
2018-06-04T06:24:06.397Z,18.10
2018-06-04T06:26:35.499Z,18.30
2018-06-04T06:29:04.005Z,18.40
2018-06-04T06:31:32.530Z,18.50
2018-06-04T06:34:00.983Z,18.70
2018-06-04T06:36:29.544Z,18.80
2018-06-04T06:41:26.287Z,19.00
2018-06-04T06:43:54.799Z,19.10
2018-06-04T06:48:58.016Z,19.40
2018-06-04T06:51:26.547Z,19.40
2018-06-04T06:53:54.991Z,19.60
2018-06-04T06:56:23.474Z,19.60
2018-06-04T06:58:52.007Z,19.70
2018-06-04T07:01:20.573Z,19.80
2018-06-04T07:03:49.038Z,20.00
2018-06-04T07:06:17.548Z,20.30
2018-06-04T07:08:46.110Z,20.50
2018-06-04T07:11:14.646Z,20.60
2018-06-04T07:13:43.160Z,20.70
2018-06-04T07:16:11.672Z,20.70
2018-06-04T07:18:40.198Z,20.80
2018-06-04T07:21:08.674Z,20.90
2018-06-04T07:23:37.208Z,21.20
2018-06-04T07:26:05.813Z,21.40
2018-06-04T07:28:34.402Z,21.50
2018-06-04T07:33:31.203Z,21.70
2018-06-04T07:36:11.014Z,21.90
2018-06-04T07:38:40.023Z,22.00
2018-06-04T07:41:08.591Z,22.10
2018-06-04T07:43:37.158Z,22.00
2018-06-04T07:46:05.690Z,22.20
2018-06-04T07:48:34.147Z,22.30
2018-06-04T07:51:02.648Z,22.40
2018-06-04T07:53:31.180Z,22.60
2018-06-04T07:55:59.669Z,22.80
2018-06-04T07:58:28.208Z,22.60
2018-06-04T08:00:56.751Z,22.60
2018-06-04T08:03:25.354Z,22.60
2018-06-04T08:05:53.847Z,22.80
2018-06-04T08:08:22.385Z,23.10
2018-06-04T08:13:19.117Z,23.60
2018-06-04T08:15:47.592Z,23.60
2018-06-04T08:18:16.150Z,23.80
2018-06-04T08:20:45.571Z,23.60
2018-06-04T08:23:14.151Z,23.60
2018-06-04T08:25:42.750Z,23.90
2018-06-04T08:28:11.283Z,24.00
2018-06-04T08:30:39.998Z,24.10
2018-06-04T08:33:08.548Z,24.00
2018-06-04T08:35:37.049Z,24.20
2018-06-04T08:38:05.559Z,24.10
2018-06-04T08:40:34.163Z,24.20
2018-06-04T08:43:02.727Z,24.30
2018-06-04T08:45:31.296Z,24.00
2018-06-04T08:47:59.838Z,24.60
2018-06-04T08:50:28.395Z,24.60
2018-06-04T08:52:56.932Z,24.60
2018-06-04T08:55:25.401Z,24.80
2018-06-04T08:57:54.019Z,25.00
2018-06-04T09:00:22.623Z,25.30
2018-06-04T09:02:51.211Z,25.60
2018-06-04T09:07:48.103Z,25.50
2018-06-04T09:10:16.636Z,25.90
2018-06-04T09:12:45.249Z,26.30
2018-06-04T09:15:13.879Z,26.40
2018-06-04T09:17:42.440Z,26.70
2018-06-04T09:20:11.039Z,27.00
2018-06-04T09:22:39.658Z,26.90
2018-06-04T09:25:08.143Z,27.20
2018-06-04T09:27:36.719Z,27.30
2018-06-04T09:30:05.290Z,27.60
2018-06-04T09:32:33.877Z,27.90
2018-06-04T09:35:02.435Z,27.80
2018-06-04T09:37:32.097Z,28.10
2018-06-04T09:40:00.649Z,28.10
2018-06-04T09:42:29.173Z,28.20
2018-06-04T09:44:57.705Z,27.90
2018-06-04T09:47:26.370Z,27.60
2018-06-04T09:52:23.148Z,26.90
2018-06-04T09:54:51.728Z,27.30
2018-06-04T09:57:20.204Z,27.20
2018-06-04T09:59:48.714Z,27.20
2018-06-04T10:02:17.281Z,27.70
2018-06-04T10:04:45.907Z,28.10
2018-06-04T10:07:14.377Z,27.80
2018-06-04T10:12:11.086Z,27.60
2018-06-04T10:14:39.596Z,27.90
2018-06-04T10:17:08.086Z,28.30
2018-06-04T10:19:36.616Z,28.20
2018-06-04T10:22:05.138Z,27.90
2018-06-04T10:24:33.759Z,27.40
2018-06-04T10:27:02.239Z,27.30
2018-06-04T10:31:58.977Z,26.80
2018-06-04T10:34:27.507Z,27.00
2018-06-04T10:36:56.026Z,27.10
2018-06-04T10:39:24.493Z,27.00
2018-06-04T10:41:53.010Z,26.80
2018-06-04T10:44:21.458Z,26.80
2018-06-04T10:46:49.987Z,26.60
2018-06-04T10:49:18.513Z,26.50
2018-06-04T10:51:47.016Z,26.40
2018-06-04T10:54:15.521Z,26.30
2018-06-04T10:59:12.297Z,27.10
2018-06-04T11:01:40.726Z,27.20
2018-06-04T11:04:09.588Z,27.20
2018-06-04T11:06:38.066Z,26.90
2018-06-04T11:09:08.596Z,26.90
2018-06-04T11:11:37.078Z,26.80
2018-06-04T11:14:05.634Z,26.60
2018-06-04T11:16:34.123Z,26.80
2018-06-04T11:19:02.648Z,27.10
2018-06-04T11:21:31.072Z,27.20
2018-06-04T11:24:00.307Z,26.90
2018-06-04T11:26:28.797Z,26.80
2018-06-04T11:28:57.327Z,27.20
2018-06-04T11:31:25.884Z,27.20
2018-06-04T11:33:54.372Z,27.20
2018-06-04T11:36:22.826Z,27.30
2018-06-04T11:38:52.159Z,27.40
2018-06-04T11:41:20.643Z,27.50
2018-06-04T11:43:49.187Z,27.70
2018-06-04T11:46:17.619Z,28.00
2018-06-04T11:48:46.205Z,28.00
2018-06-04T11:51:14.889Z,28.50
2018-06-04T11:53:43.286Z,28.70
2018-06-04T11:56:11.788Z,29.00
2018-06-04T11:58:40.380Z,29.10
2018-06-04T12:01:08.938Z,28.90
2018-06-04T12:03:37.609Z,28.60
2018-06-04T12:06:06.187Z,28.70
2018-06-04T12:08:34.752Z,28.30
2018-06-04T12:11:03.427Z,27.90
2018-06-04T12:13:32.083Z,28.00
2018-06-04T12:16:00.561Z,28.00
2018-06-04T12:18:29.099Z,28.00
2018-06-04T12:20:57.674Z,27.80
2018-06-04T12:23:26.288Z,27.90
2018-06-04T12:25:54.848Z,27.80
2018-06-04T12:28:23.318Z,27.80
2018-06-04T12:33:20.093Z,27.70
2018-06-04T12:35:48.635Z,27.80
2018-06-04T12:38:17.244Z,27.80
2018-06-04T12:43:14.024Z,28.20
2018-06-04T12:45:42.692Z,28.50
2018-06-04T12:48:11.189Z,28.90
2018-06-04T12:50:39.688Z,28.50
2018-06-04T12:53:08.266Z,28.30
2018-06-04T12:55:36.801Z,28.20
2018-06-04T12:58:05.544Z,28.30
2018-06-04T13:00:34.294Z,28.90
2018-06-04T13:03:02.824Z,29.10
2018-06-04T13:05:31.349Z,29.10
2018-06-04T13:07:59.857Z,29.10
2018-06-04T13:10:28.396Z,29.00
2018-06-04T13:12:56.944Z,29.10
2018-06-04T13:15:25.557Z,29.20
2018-06-04T13:17:54.229Z,29.30
2018-06-04T13:20:23.495Z,28.90
2018-06-04T13:22:51.993Z,28.90
2018-06-04T13:25:20.535Z,29.30
2018-06-04T13:27:49.122Z,28.80
2018-06-04T13:32:46.070Z,27.90
2018-06-04T13:35:15.115Z,27.80
2018-06-04T13:37:43.785Z,27.70
2018-06-04T13:40:12.354Z,27.70
2018-06-04T13:42:40.946Z,27.70
2018-06-04T13:45:09.483Z,27.50
2018-06-04T13:47:38.012Z,27.70
2018-06-04T13:50:06.619Z,27.90
2018-06-04T13:52:35.105Z,28.10
2018-06-04T13:55:03.723Z,28.20
2018-06-04T13:57:32.777Z,28.30
2018-06-04T14:00:01.557Z,28.40
2018-06-04T14:02:30.248Z,28.60
2018-06-04T14:04:58.846Z,28.60
2018-06-04T14:07:27.508Z,28.60
2018-06-04T14:09:56.007Z,28.60
2018-06-04T14:12:24.517Z,28.60
2018-06-04T14:14:53.111Z,28.70
2018-06-04T14:17:21.630Z,28.70
2018-06-04T14:19:50.187Z,28.70
2018-06-04T14:22:18.854Z,28.70
2018-06-04T14:24:47.353Z,28.60
2018-06-04T14:27:15.917Z,28.60
2018-06-04T14:29:44.502Z,28.60
2018-06-04T14:32:13.052Z,28.60
2018-06-04T14:34:41.602Z,28.90
2018-06-04T14:39:38.341Z,28.90
2018-06-04T14:44:35.269Z,28.70
2018-06-04T14:47:03.798Z,28.80
2018-06-04T14:52:00.519Z,28.80
2018-06-04T14:56:57.231Z,28.70
2018-06-04T14:59:25.930Z,28.90
2018-06-04T15:01:54.478Z,28.80
2018-06-04T15:06:51.034Z,28.60
2018-06-04T15:14:15.866Z,28.80
2018-06-04T15:19:12.449Z,28.70
2018-06-04T15:21:41.726Z,28.70
2018-06-04T15:24:10.205Z,28.60
2018-06-04T15:26:38.677Z,28.50
2018-06-04T15:31:35.385Z,28.50
2018-06-04T15:34:03.895Z,28.50
2018-06-04T15:36:32.365Z,28.60
2018-06-04T15:39:00.867Z,28.60
2018-06-04T15:43:57.557Z,28.60
2018-06-04T15:46:26.040Z,28.60
2018-06-04T15:48:54.551Z,28.60
2018-06-04T15:51:23.125Z,28.60
2018-06-04T15:53:52.410Z,28.60
2018-06-04T15:56:20.902Z,28.70
2018-06-04T15:58:49.391Z,28.70
2018-06-04T16:01:17.915Z,28.50
2018-06-04T16:03:46.417Z,28.50
2018-06-04T16:06:14.930Z,28.40
2018-06-04T16:08:43.492Z,28.30
2018-06-04T16:11:11.989Z,28.30
2018-06-04T16:13:40.503Z,28.30
2018-06-04T16:16:09.055Z,28.40
2018-06-04T16:18:37.538Z,28.40
2018-06-04T16:21:06.066Z,28.40
2018-06-04T16:26:02.887Z,28.50
2018-06-04T16:28:31.421Z,28.50
2018-06-04T16:30:59.966Z,28.40
2018-06-04T16:33:28.499Z,28.30
2018-06-04T16:35:56.981Z,28.40
2018-06-04T16:38:25.475Z,28.20
2018-06-04T16:40:54.040Z,28.20
2018-06-04T16:43:22.552Z,28.10
2018-06-04T16:45:51.075Z,28.10
2018-06-04T16:48:19.618Z,28.00
2018-06-04T16:50:48.242Z,28.00
2018-06-04T16:53:16.845Z,27.90
2018-06-04T16:55:45.359Z,28.00
2018-06-04T16:58:13.887Z,28.00
2018-06-04T17:00:43.641Z,28.00
2018-06-04T17:03:12.137Z,28.00
2018-06-04T17:05:40.667Z,27.90
2018-06-04T17:08:09.172Z,27.90
2018-06-04T17:10:37.658Z,27.90
2018-06-04T17:13:06.292Z,27.90
2018-06-04T17:15:34.913Z,27.70
2018-06-04T17:20:31.971Z,27.80
2018-06-04T17:23:00.680Z,27.70
2018-06-04T17:25:30.078Z,27.60
2018-06-04T17:27:58.762Z,27.70
2018-06-04T17:32:55.578Z,27.50
2018-06-04T17:35:24.089Z,27.50
2018-06-04T17:37:52.742Z,27.50
2018-06-04T17:40:21.323Z,27.50
2018-06-04T17:42:49.834Z,27.50
2018-06-04T17:45:18.648Z,27.50
2018-06-04T17:47:47.200Z,27.40
2018-06-04T17:50:15.742Z,27.30
2018-06-04T17:52:44.264Z,27.40
2018-06-04T17:55:12.784Z,27.30
2018-06-04T17:57:41.407Z,27.30
2018-06-04T18:00:10.111Z,27.30
2018-06-04T18:02:38.591Z,27.20
2018-06-04T18:05:07.325Z,27.20
2018-06-04T18:07:35.944Z,27.10
2018-06-04T18:10:04.604Z,27.10
2018-06-04T18:12:33.299Z,27.00
2018-06-04T18:15:01.963Z,26.90
2018-06-04T18:17:30.603Z,26.90
2018-06-04T18:19:59.187Z,26.80
2018-06-04T18:22:27.862Z,26.70
2018-06-04T18:24:56.436Z,26.70
2018-06-04T18:27:25.163Z,26.80
2018-06-04T18:32:22.035Z,26.70
2018-06-04T18:34:50.539Z,26.60
2018-06-04T18:37:19.227Z,26.60
2018-06-04T18:39:47.832Z,26.60
2018-06-04T18:42:16.375Z,26.50
2018-06-04T18:44:45.044Z,26.50
2018-06-04T18:47:13.636Z,26.30
2018-06-04T18:49:42.161Z,26.30
2018-06-04T18:52:10.961Z,26.30
2018-06-04T18:54:39.535Z,26.20
2018-06-04T18:57:08.131Z,26.20
2018-06-04T18:59:36.656Z,26.10
2018-06-04T19:02:05.243Z,26.00
2018-06-04T19:04:34.451Z,26.00
2018-06-04T19:07:02.964Z,25.90
2018-06-04T19:09:31.491Z,25.90
2018-06-04T19:11:59.994Z,25.80
2018-06-04T19:14:28.466Z,25.60
2018-06-04T19:16:57.071Z,25.40
2018-06-04T19:19:25.654Z,25.30
2018-06-04T19:21:54.125Z,25.00
2018-06-04T19:24:22.638Z,24.80
2018-06-04T19:26:51.211Z,24.70
2018-06-04T19:29:19.839Z,24.50
2018-06-04T19:34:16.616Z,24.20
2018-06-04T19:36:46.090Z,24.20
2018-06-04T19:39:14.637Z,24.10
2018-06-04T19:41:43.114Z,24.10
2018-06-04T19:44:11.617Z,24.10
2018-06-04T19:46:40.791Z,24.00
2018-06-04T19:49:09.296Z,24.00
2018-06-04T19:51:37.873Z,23.90
2018-06-04T19:54:06.448Z,23.80
2018-06-04T19:56:35.082Z,23.80
2018-06-04T19:59:03.655Z,23.60
2018-06-04T20:01:32.170Z,23.40
2018-06-04T20:04:00.709Z,23.30
2018-06-04T20:06:29.432Z,23.30
2018-06-04T20:08:58.204Z,23.30
2018-06-04T20:13:55.001Z,23.30
2018-06-04T20:16:23.608Z,23.20
2018-06-04T20:18:52.103Z,22.90
2018-06-04T20:21:20.602Z,22.90
2018-06-04T20:23:49.099Z,22.90
2018-06-04T20:28:45.859Z,22.90
2018-06-04T20:33:42.767Z,22.80
2018-06-04T20:36:11.232Z,22.70
2018-06-04T20:38:39.782Z,22.70
2018-06-04T20:41:08.303Z,22.70
2018-06-04T20:43:36.900Z,22.50
2018-06-04T20:46:05.423Z,22.60
2018-06-04T20:51:02.078Z,22.30
2018-06-04T20:53:30.565Z,22.40
2018-06-04T20:55:59.084Z,22.40
2018-06-04T20:58:27.594Z,22.20
2018-06-04T21:00:56.094Z,22.10
2018-06-04T21:03:24.607Z,22.10
2018-06-04T21:05:53.143Z,21.90
2018-06-04T21:08:21.647Z,21.90
2018-06-04T21:10:50.155Z,21.80
2018-06-04T21:13:18.686Z,21.70
2018-06-04T21:15:47.293Z,21.70
2018-06-04T21:18:15.932Z,21.60
2018-06-04T21:20:44.458Z,21.60
2018-06-04T21:23:12.972Z,21.50
2018-06-04T21:25:41.483Z,21.50
2018-06-04T21:28:09.961Z,21.30
2018-06-04T21:30:38.525Z,21.30
2018-06-04T21:33:07.029Z,21.40
2018-06-04T21:35:35.483Z,21.30
2018-06-04T21:38:03.955Z,21.20
2018-06-04T21:40:32.474Z,21.20
2018-06-04T21:43:00.999Z,21.10
2018-06-04T21:45:29.532Z,21.10
2018-06-04T21:47:58.064Z,21.10
2018-06-04T21:52:54.922Z,20.90
2018-06-04T21:57:52.225Z,20.90
2018-06-04T22:00:20.806Z,20.80
2018-06-04T22:02:49.331Z,20.80
2018-06-04T22:05:17.826Z,20.70
2018-06-04T22:07:46.460Z,20.60
2018-06-04T22:10:14.967Z,20.40
2018-06-04T22:12:43.481Z,20.40
2018-06-04T22:17:40.214Z,20.40
2018-06-04T22:20:08.742Z,20.30
2018-06-04T22:22:37.459Z,20.20
2018-06-04T22:25:06.001Z,20.10
2018-06-04T22:27:34.494Z,20.20
2018-06-04T22:30:03.081Z,20.10
2018-06-04T22:32:31.584Z,19.70
2018-06-04T22:35:00.201Z,19.80
2018-06-04T22:37:28.733Z,19.80
2018-06-04T22:39:57.278Z,19.80
2018-06-04T22:42:25.816Z,19.80
2018-06-04T22:44:54.286Z,19.80
2018-06-04T22:47:22.807Z,19.90
2018-06-04T22:49:51.311Z,19.70
2018-06-04T22:54:47.963Z,19.50
2018-06-04T22:57:16.414Z,19.70
2018-06-04T22:59:44.938Z,19.70
2018-06-04T23:02:13.384Z,19.70
2018-06-04T23:04:41.858Z,19.50
2018-06-04T23:07:10.370Z,19.00
2018-06-04T23:09:39.235Z,19.00
2018-06-04T23:12:07.714Z,19.10
2018-06-04T23:14:36.262Z,19.20
2018-06-04T23:17:05.122Z,19.30
2018-06-04T23:19:33.811Z,19.30
2018-06-04T23:22:02.634Z,19.10
2018-06-04T23:24:31.158Z,19.10
2018-06-04T23:27:00.526Z,19.10
2018-06-04T23:29:29.031Z,18.90
2018-06-04T23:31:57.722Z,18.90
2018-06-04T23:34:26.672Z,18.90
2018-06-04T23:36:55.994Z,18.80
2018-06-04T23:39:24.706Z,18.80
2018-06-04T23:41:54.006Z,18.80
2018-06-04T23:44:22.712Z,18.80
2018-06-04T23:46:51.389Z,18.70
2018-06-04T23:49:20.028Z,18.50
2018-06-04T23:51:48.567Z,18.60
2018-06-04T23:54:17.078Z,18.40
2018-06-04T23:56:45.551Z,18.50
2018-06-04T23:59:14.195Z,18.20
